Aérodrome :
LOGIN :

S'inscrire | Disclaimer

   EN    FR    IT 

 










Légende :    VFR   VFR Marginal   IFR   IFR Intensif   IFR Très Intensif
Visi : 
Plafond : 
>= 8 km
>= 3000ft
5 à 8 km
1000 à 3000 ft
1500m à 5 km
500 à 1000 ft
800 à 1500m
200 à 500 ft
< 800m
< 200 ft
Symboles :   Orages  Brouillard  Fortes neiges  Fortes précipitations  Vent > 20 kt
SIGMETs :   Divers  Orages  Givrage  Turbulence  Onde Orograph.  Cendres Volcan.







- Altitude de l'aérodrome : 56 ft
- Code IATA : BZR
- Voir les cartes d'approche


LFMU - Beziers / Vias

DERNIER METAR :
  • 261830Z AUTO 14006KT 110V170 9999 FEW015 21/16 Q1016 BECMG BKN012

METARs EXPIRÉS :
  • 261800Z AUTO 14007KT 110V170 CAVOK 21/16 Q1016 BECMG BKN012
  • 261730Z AUTO 15006KT 110V180 CAVOK 22/16 Q1016 BECMG BKN012
  • 261700Z AUTO 15007KT 120V190 CAVOK 22/16 Q1016 NOSIG
  • 261630Z AUTO 16008KT 120V180 CAVOK 22/16 Q1016 NOSIG
  • 261600Z AUTO 15008KT 110V180 CAVOK 23/16 Q1016 NOSIG

TAF TAF LFMU
Valide du 26 à 15h jusqu'au 27 à 15h UTC


261400Z 2615/2715 15008KT CAVOK
BECMG 2619/2621 BKN012
TEMPO 2621/2706 3000 BR BKN005
BECMG 2709/2711 CAVOK
ATIS : +33 4 67 90 88 88
Pas de NOTAMs connus pour ce terrain.



MET'MAP, la Météo Aéronautique d'un coup d'oeil ! - Copyright ORBIFLY Décembre 2007 - Disclaimer

ORBIFLY MET'MAP TEAM :

Programmation & Développement : Alexandra Zaïnal
Conception & Développement : Baudouin d'Aumeries
Co-Programmation & Développement : Marc-Olivier Méhu
Soutien technique & logistique : Manuel Goepfert

Contact : metmap@orbifly.com




SOURCES & CREDITS :

   NOAA